St Lucie County International Airport
KFPR : now visible

Airfield :











YOU CAN JOIN US ON...

 
LOGIN :

Register | Disclaimer

   EN    FR    IT 

 









Legend :    VFR   Marginal VFR   IFR   Intensive IFR   Very Intensive IFR
Visi :
Ceiling :
>= 8 km
>= 3000ft
5 to 8 km
1000 to 3000 ft
1500m to 5 km
500 to 1000 ft
800 to 1500m
200 to 500 ft
< 800m
< 200 ft
Symbols :   Thunderstorms  Fog  Heavy snow  Heavy precipitations  Wind > 20 kt







- Airport Elevation : 24 ft
- IATA code : FPR


KFPR - St Lucie County International

CURRENT METAR :
  • 200953Z AUTO 08011G23KT 5SM -RA SCT023 BKN039 BKN048 24/21 A3000 RMK AO2 RAB06E29B47 SLP157 P0002 T02390206

EXPIRED METARs :
  • 200853Z AUTO 08010G17KT 10SM SCT028 SCT043 BKN050 26/21 A2999 RMK AO2 RAB03E12 SLP154 P0000 60000 T02560206 55007
  • 200753Z AUTO 08016G22KT 10SM FEW030 BKN085 26/20 A2998 RMK AO2 RAB06E15 SLP152 P0000 T02610200

TAF KFPR
Valid from the 20 at 09:00 until the 21 at 06:00 UTC


200858Z 2009/2106 08014G20KT P6SM VCSH FEW030 SCT040 BKN060
TEMPO 2009/2011 5SM SHRA BKN030
FM201800 08015G25KT P6SM FEW030 SCT040
No reported NOTAMs for that airfield.



MET'MAP, your aeronautical weather chart ! - Copyright ORBIFLY December 2007 - Disclaimer

ORBIFLY MET'MAP TEAM :

Programming & Development : Alexandra Zaïnal
Concept & Development : Baudouin d'Aumeries
Co-Development & Prog : Marc-Olivier Méhu
Technical & hardware support : Manuel Goepfert

Contact : metmap@orbifly.com




SOURCES & CREDITS :

   NOAA       Earth
Advisory